AKST,Max TemperatureF,Mean TemperatureF,Min TemperatureF,Max Dew PointF,MeanDew PointF,Min DewpointF,Max Humidity, Mean Humidity, Min Humidity, Max Sea Level PressureIn, Mean Sea Level PressureIn, Min Sea Level PressureIn, Max VisibilityMiles, Mean VisibilityMiles, Min VisibilityMiles, Max Wind SpeedMPH, Mean Wind SpeedMPH, Max Gust SpeedMPH,PrecipitationIn, CloudCover, Events, WindDirDegrees
2013-1-1,34,31,28,28,26,23,87,79,73,29.23,29.11,28.93,10,9,2,22,11,25,0.00,7,Rain-Snow,246
2013-1-2,36,31,26,31,28,24,93,84,70,29.00,28.91,28.88,10,9,2,16,4,21,0.00,7,Rain-Snow,310
2013-1-3,36,34,32,31,27,22,92,76,59,29.33,29.14,28.98,10,8,1,16,10,25,0.01,5,Rain-Snow,245
2013-1-4,41,36,32,32,29,22,87,75,55,29.34,29.02,28.86,10,7,1,31,14,43,0.03,6,Rain-Snow,165
2013-1-5,37,35,33,31,28,23,89,75,59,29.21,29.08,28.97,10,7,1,32,16,44,0.02,7,Rain-Snow,216
2013-1-6,37,35,33,31,29,26,89,74,65,29.37,29.15,28.99,10,10,4,18,8,23,0.01,7,Rain,338
2013-1-7,37,35,33,31,28,22,87,73,54,30.05,29.74,29.40,10,9,2,28,10,32,0.01,6,Rain-Snow,266
2013-1-8,44,38,33,36,31,21,79,72,61,30.06,29.85,29.65,10,10,9,20,10,33,0.04,7,Rain,160
2013-1-9,41,39,37,36,31,24,86,71,55,29.72,29.61,29.48,10,10,10,21,14,28,0.14,4,Rain,185
2013-1-10,43,40,36,36,30,24,82,68,60,29.86,29.60,29.42,10,9,4,26,16,43,0.00,6,Rain-Snow,191
2013-1-11,44,38,33,40,31,22,93,77,59,29.91,29.54,29.05,10,6,0,31,12,44,0.46,7,Rain-Snow,130
2013-1-12,44,42,41,39,36,31,89,78,65,29.20,29.07,29.01,10,9,5,22,15,34,0.13,7,Rain,152
2013-1-13,42,38,33,36,32,30,93,83,62,29.47,29.37,29.23,10,7,2,23,13,32,0.41,7,Rain-Snow,332
2013-1-14,37,34,32,34,31,30,93,90,86,29.97,29.74,29.46,10,9,2,12,3,,0.01,7,Rain-Snow,347
2013-1-15,39,34,30,36,31,28,96,90,81,30.21,30.12,29.96,10,10,8,14,2,22,0.01,6,Rain,354
2013-1-16,36,34,33,30,26,23,82,72,64,30.19,30.09,30.01,10,10,10,14,9,20,0.00,6,,103
2013-1-17,36,34,32,31,28,23,89,79,66,29.99,29.78,29.64,10,6,0,29,17,40,0.00,8,Fog-Rain-Snow,98
2013-1-18,37,35,33,34,32,30,93,90,81,29.64,29.50,29.26,10,6,1,16,6,22,0.88,8,Rain-Snow,27
2013-1-19,39,37,35,36,34,28,93,88,70,29.24,28.94,28.80,10,7,2,24,10,28,0.20,8,Rain,170
2013-1-20,42,38,33,37,35,28,96,88,70,29.08,29.00,28.96,10,8,2,20,9,25,0.28,8,Rain,151
2013-1-21,39,37,35,36,30,23,93,75,59,29.54,29.32,29.07,10,10,7,22,9,31,0.12,8,Rain,263
2013-1-22,36,34,32,23,20,17,64,57,48,29.57,29.49,29.35,10,10,10,18,9,24,0.00,6,,266
2013-1-23,37,34,32,34,30,24,93,84,64,29.47,29.32,29.25,10,9,5,20,6,26,0.01,8,Rain-Snow,306
2013-1-24,37,35,33,34,31,27,93,83,75,29.86,29.69,29.47,10,10,7,22,14,25,0.00,7,Rain,310
2013-1-25,39,34,30,32,29,26,93,80,68,29.99,29.90,29.85,10,10,6,13,1,,0.00,6,Rain-Snow,234
2013-1-26,36,34,33,31,29,27,92,82,70,30.04,30.01,29.98,10,8,3,15,2,,0.00,8,Rain-Snow,339
2013-1-27,34,32,30,29,27,26,93,85,78,30.04,29.80,29.49,10,2,0,25,12,33,0.16,8,Fog-Rain-Snow,33
2013-1-28,35,32,30,32,29,27,93,87,81,29.46,29.06,28.75,10,3,1,22,9,25,0.43,8,Rain-Snow,37
2013-1-29,39,38,35,36,34,34,93,84,81,29.11,29.00,28.89,10,10,4,12,6,,0.00,8,Rain,166
2013-1-30,33,33,33,23,21,19,65,61,56,29.65,29.54,29.40,10,10,10,14,11,23,0.00,8,,278
2013-1-31,35,35,35,28,27,23,75,71,60,29.72,29.67,29.64,10,10,9,26,18,39,0.00,8,Snow,38